KOALA72 LPMT-LPMT
Flight info
| Callsign | KOALA72 |
|---|---|
| Flight time | N/A |
| Altitude | 2000 |
| Route | LPMT DCT CVAPO DCT STAY1/0015 |
| Aircraft | A119/L-SDFGY/C |
Departure
| Time | 2026-05-04 18:32 |
|---|---|
| Airport | Montijo Air Base (LPMT) |
Arrival
| Time | N/A |
|---|---|
| Airport | Montijo Air Base (LPMT) |
| Time | Latitude | Longitude | Altitude | Speed | Heading |
|---|---|---|---|---|---|
| 2026-05-04 18:22 | 38.69919 | -9.04164 | 49 ft | 0 kts | 202° |
| 2026-05-04 18:25 | 38.69920 | -9.04165 | 49 ft | 0 kts | 200° |
| 2026-05-04 18:28 | 38.69920 | -9.04164 | 49 ft | 0 kts | 200° |
| 2026-05-04 18:29 | 38.69915 | -9.04165 | 50 ft | 4 kts | 185° |
| 2026-05-04 18:29 | 38.69873 | -9.04138 | 55 ft | 8 kts | 115° |
| 2026-05-04 18:29 | 38.69852 | -9.04085 | 59 ft | 6 kts | 109° |
| 2026-05-04 18:29 | 38.69843 | -9.04057 | 50 ft | 0 kts | 110° |
| 2026-05-04 18:30 | 38.69843 | -9.04054 | 51 ft | 3 kts | 112° |
| 2026-05-04 18:31 | 38.69826 | -9.04070 | 234 ft | 8 kts | 139° |
| 2026-05-04 18:31 | 38.69787 | -9.04088 | 415 ft | 10 kts | 229° |
| 2026-05-04 18:31 | 38.69711 | -9.04197 | 725 ft | 19 kts | 239° |
| 2026-05-04 18:31 | 38.69664 | -9.04294 | 1005 ft | 15 kts | 235° |
| 2026-05-04 18:32 | 38.69597 | -9.04425 | 1212 ft | 36 kts | 238° |
| 2026-05-04 18:32 | 38.69313 | -9.04663 | 1379 ft | 52 kts | 200° |
| 2026-05-04 18:32 | 38.68921 | -9.04845 | 1425 ft | 78 kts | 204° |
| 2026-05-04 18:32 | 38.68413 | -9.05364 | 1663 ft | 105 kts | 238° |
| 2026-05-04 18:33 | 38.67941 | -9.06192 | 1839 ft | 120 kts | 237° |
| 2026-05-04 18:33 | 38.67431 | -9.07137 | 1874 ft | 138 kts | 242° |
| 2026-05-04 18:33 | 38.66900 | -9.08265 | 1848 ft | 149 kts | 242° |
| 2026-05-04 18:33 | 38.66369 | -9.09434 | 1847 ft | 152 kts | 243° |
| 2026-05-04 18:34 | 38.65949 | -9.10395 | 1807 ft | 156 kts | 243° |
| 2026-05-04 18:34 | 38.65458 | -9.11598 | 2006 ft | 144 kts | 246° |
| 2026-05-04 18:34 | 38.65050 | -9.12613 | 2617 ft | 109 kts | 251° |
| 2026-05-04 18:34 | 38.64650 | -9.13707 | 1895 ft | 161 kts | 247° |
| 2026-05-04 18:35 | 38.64201 | -9.14905 | 1833 ft | 134 kts | 249° |
| 2026-05-04 18:35 | 38.63868 | -9.15917 | 1793 ft | 111 kts | 246° |
| 2026-05-04 18:35 | 38.63498 | -9.16636 | 1794 ft | 83 kts | 232° |
| 2026-05-04 18:35 | 38.63094 | -9.17120 | 1711 ft | 90 kts | 223° |
| 2026-05-04 18:36 | 38.62525 | -9.17680 | 1804 ft | 113 kts | 214° |
| 2026-05-04 18:36 | 38.61713 | -9.18054 | 1814 ft | 130 kts | 189° |
| 2026-05-04 18:36 | 38.60799 | -9.18222 | 1796 ft | 139 kts | 187° |
| 2026-05-04 18:36 | 38.59924 | -9.18310 | 1796 ft | 143 kts | 180° |
| 2026-05-04 18:37 | 38.58886 | -9.18276 | 1609 ft | 155 kts | 173° |
| 2026-05-04 18:37 | 38.57823 | -9.18078 | 1637 ft | 151 kts | 174° |
| 2026-05-04 18:37 | 38.56785 | -9.18059 | 1701 ft | 153 kts | 179° |
| 2026-05-04 18:37 | 38.55674 | -9.18144 | 1602 ft | 161 kts | 189° |
| 2026-05-04 18:38 | 38.54620 | -9.18610 | 1560 ft | 159 kts | 206° |
| 2026-05-04 18:38 | 38.53587 | -9.19149 | 1603 ft | 155 kts | 198° |
| 2026-05-04 18:38 | 38.52545 | -9.19541 | 1661 ft | 153 kts | 193° |
| 2026-05-04 18:38 | 38.51490 | -9.19788 | 1736 ft | 153 kts | 187° |
| 2026-05-04 18:39 | 38.50435 | -9.19980 | 1770 ft | 155 kts | 185° |
| 2026-05-04 18:39 | 38.49346 | -9.20270 | 1619 ft | 164 kts | 195° |
| 2026-05-04 18:39 | 38.48304 | -9.20842 | 1544 ft | 162 kts | 210° |
| 2026-05-04 18:39 | 38.47278 | -9.21502 | 1426 ft | 164 kts | 204° |
| 2026-05-04 18:40 | 38.46208 | -9.21917 | 1441 ft | 159 kts | 194° |
| 2026-05-04 18:40 | 38.45130 | -9.22225 | 1380 ft | 150 kts | 190° |
| 2026-05-04 18:40 | 38.44160 | -9.22426 | 1296 ft | 130 kts | 189° |
| 2026-05-04 18:40 | 38.43334 | -9.22685 | 1197 ft | 112 kts | 189° |
| 2026-05-04 18:41 | 38.42686 | -9.22810 | 1131 ft | 75 kts | 170° |
| 2026-05-04 18:41 | 38.42239 | -9.22767 | 1012 ft | 52 kts | 169° |
| 2026-05-04 18:41 | 38.42105 | -9.22790 | 936 ft | 29 kts | 187° |
| 2026-05-04 18:41 | 38.42049 | -9.22799 | 558 ft | 28 kts | 201° |
| 2026-05-04 18:42 | 38.41901 | -9.22842 | 614 ft | 31 kts | 193° |
| 2026-05-04 18:42 | 38.41692 | -9.22813 | 483 ft | 39 kts | 186° |
| 2026-05-04 18:42 | 38.41453 | -9.22818 | 360 ft | 25 kts | 191° |
| 2026-05-04 18:42 | 38.41321 | -9.22834 | 283 ft | 30 kts | 207° |
| 2026-05-04 18:43 | 38.41085 | -9.22956 | 132 ft | 37 kts | 191° |
| 2026-05-04 18:43 | 38.40849 | -9.22990 | 82 ft | 39 kts | 182° |
| 2026-05-04 18:43 | 38.40612 | -9.22984 | 70 ft | 29 kts | 174° |
| 2026-05-04 18:43 | 38.40406 | -9.22984 | 71 ft | 29 kts | 171° |
| 2026-05-04 18:44 | 38.40205 | -9.22984 | 71 ft | 29 kts | 169° |
| 2026-05-04 18:44 | 38.40138 | -9.22984 | 70 ft | 29 kts | 168° |
| 2026-05-04 18:44 | 38.39798 | -9.22983 | 71 ft | 29 kts | 164° |
| 2026-05-04 18:44 | 38.39595 | -9.22983 | 71 ft | 29 kts | 164° |
| 2026-05-04 18:45 | 38.39393 | -9.22982 | 70 ft | 29 kts | 161° |
| 2026-05-04 18:45 | 38.39191 | -9.22982 | 70 ft | 29 kts | 159° |
| 2026-05-04 18:45 | 38.38987 | -9.22982 | 70 ft | 29 kts | 155° |
| 2026-05-04 18:45 | 38.38782 | -9.22981 | 69 ft | 28 kts | 149° |
| 2026-05-04 18:46 | 38.38579 | -9.22982 | 70 ft | 29 kts | 155° |
| 2026-05-04 18:46 | 38.38345 | -9.22942 | 198 ft | 38 kts | 131° |
| 2026-05-04 18:46 | 38.38163 | -9.22924 | 243 ft | 20 kts | 33° |
| 2026-05-04 18:46 | 38.38109 | -9.22997 | 171 ft | 34 kts | 192° |
| 2026-05-04 18:47 | 38.37778 | -9.22978 | 71 ft | 43 kts | 165° |
| 2026-05-04 18:47 | 38.37571 | -9.22974 | 69 ft | 29 kts | 172° |
| 2026-05-04 18:47 | 38.37365 | -9.22973 | 68 ft | 29 kts | 174° |
| 2026-05-04 18:47 | 38.37161 | -9.22973 | 69 ft | 29 kts | 176° |
| 2026-05-04 18:48 | 38.36958 | -9.22972 | 68 ft | 29 kts | 181° |
| 2026-05-04 18:48 | 38.36756 | -9.22972 | 70 ft | 29 kts | 182° |
| 2026-05-04 18:48 | 38.36551 | -9.22971 | 69 ft | 29 kts | 182° |
| 2026-05-04 18:48 | 38.36348 | -9.22971 | 70 ft | 29 kts | 182° |
| 2026-05-04 18:49 | 38.36145 | -9.22971 | 70 ft | 29 kts | 183° |
| 2026-05-04 18:49 | 38.35942 | -9.22970 | 69 ft | 29 kts | 183° |
| 2026-05-04 18:49 | 38.35739 | -9.22970 | 70 ft | 29 kts | 184° |
| 2026-05-04 18:49 | 38.35536 | -9.22969 | 70 ft | 29 kts | 184° |
| 2026-05-04 18:50 | 38.35334 | -9.22969 | 70 ft | 29 kts | 185° |
| 2026-05-04 18:50 | 38.35131 | -9.22968 | 70 ft | 29 kts | 185° |
| 2026-05-04 18:50 | 38.34929 | -9.22968 | 70 ft | 29 kts | 185° |
| 2026-05-04 18:50 | 38.34723 | -9.22965 | 76 ft | 36 kts | 190° |
| 2026-05-04 18:51 | 38.34549 | -9.22871 | 311 ft | 21 kts | 50° |
| 2026-05-04 18:51 | 38.34545 | -9.22734 | 337 ft | 15 kts | 34° |
| 2026-05-04 18:51 | 38.34579 | -9.22632 | 445 ft | 9 kts | 33° |
| 2026-05-04 18:51 | 38.34654 | -9.22513 | 598 ft | 24 kts | 36° |
| 2026-05-04 18:52 | 38.34768 | -9.22431 | 871 ft | 16 kts | 13° |
| 2026-05-04 18:52 | 38.35003 | -9.22484 | 1120 ft | 56 kts | 353° |
| 2026-05-04 18:52 | 38.35485 | -9.22703 | 1221 ft | 91 kts | 347° |
| 2026-05-04 18:52 | 38.36140 | -9.23009 | 1274 ft | 105 kts | 340° |
| 2026-05-04 18:53 | 38.36883 | -9.23383 | 1214 ft | 118 kts | 345° |
| 2026-05-04 18:53 | 38.37683 | -9.23527 | 1275 ft | 115 kts | 9° |
| 2026-05-04 18:53 | 38.38499 | -9.23382 | 1259 ft | 120 kts | 9° |
| 2026-05-04 18:53 | 38.39312 | -9.23186 | 1309 ft | 126 kts | 13° |
| 2026-05-04 18:54 | 38.40217 | -9.22813 | 1328 ft | 143 kts | 21° |
| 2026-05-04 18:54 | 38.41132 | -9.22285 | 1324 ft | 146 kts | 26° |
| 2026-05-04 18:54 | 38.42059 | -9.21663 | 1253 ft | 152 kts | 27° |
| 2026-05-04 18:54 | 38.42954 | -9.20953 | 1322 ft | 148 kts | 34° |
| 2026-05-04 18:55 | 38.43802 | -9.20176 | 1334 ft | 148 kts | 34° |
| 2026-05-04 18:55 | 38.45469 | -9.18614 | 1299 ft | 149 kts | 29° |
| 2026-05-04 18:55 | 38.46378 | -9.17983 | 1305 ft | 143 kts | 25° |
| 2026-05-04 18:56 | 38.47250 | -9.17502 | 1217 ft | 135 kts | 16° |
| 2026-05-04 18:56 | 38.47420 | -9.17423 | 1201 ft | 135 kts | 15° |